Time;durP1;ratioP1;P1;durP2;ratioP2;P2;SDS_P1;SDS_P2;PMS_P1;PMS_P2;Temp;Humidity;BMP_temperature;BMP_pressure;BME280_temperature;BME280_humidity;BME280_pressure;Samples;Min_cycle;Max_cycle;Signal;HPM_P1;HPM_P2
2023/03/01 00:02:01;;;;;;;18.07;13.13;;;-0.20;94.40;;;;;;6243271;28;20068;-81
2023/03/01 00:05:04;;;;;;;24.37;15.10;;;-0.20;94.40;;;;;;6237672;28;20045;-81
2023/03/01 00:08:05;;;;;;;26.70;15.57;;;-0.30;94.40;;;;;;6242728;28;20045;-81
2023/03/01 00:11:10;;;;;;;23.43;13.47;;;-0.30;94.50;;;;;;6241724;28;20042;-81
2023/03/01 00:14:16;;;;;;;21.07;14.37;;;-0.30;94.60;;;;;;6239478;28;20057;-81
2023/03/01 00:17:17;;;;;;;22.13;14.30;;;-0.40;94.70;;;;;;6241340;28;20368;-81
2023/03/01 00:20:19;;;;;;;21.30;14.40;;;-0.40;94.70;;;;;;6240445;28;20049;-81
2023/03/01 00:23:21;;;;;;;21.00;13.10;;;-0.40;94.80;;;;;;6237762;28;20411;-81
2023/03/01 00:26:24;;;;;;;22.20;13.40;;;-0.40;94.90;;;;;;6239242;28;20049;-81
2023/03/01 00:29:27;;;;;;;26.23;14.33;;;-0.40;94.90;;;;;;6236209;28;20060;-80
2023/03/01 00:32:29;;;;;;;20.60;13.93;;;-0.40;94.90;;;;;;6243426;28;20135;-81
2023/03/01 00:35:32;;;;;;;25.97;13.93;;;-0.50;94.90;;;;;;6239533;28;20133;-81
2023/03/01 00:38:36;;;;;;;18.10;11.67;;;-0.50;95.00;;;;;;6238164;28;20049;-82
2023/03/01 00:41:39;;;;;;;20.00;13.00;;;-0.40;95.20;;;;;;6237823;28;20049;-81
2023/03/01 00:44:43;;;;;;;21.77;13.97;;;-0.40;95.20;;;;;;6237640;28;20064;-81
2023/03/01 00:47:44;;;;;;;19.80;12.80;;;-0.40;95.30;;;;;;6242077;28;20567;-81
2023/03/01 00:50:46;;;;;;;20.57;12.67;;;-0.40;95.30;;;;;;6239191;28;20037;-81
2023/03/01 00:53:50;;;;;;;17.63;11.43;;;-0.30;95.60;;;;;;6239970;28;20045;-80
2023/03/01 00:56:52;;;;;;;23.10;14.20;;;-0.30;95.50;;;;;;6239659;28;20065;-81
2023/03/01 00:59:55;;;;;;;19.17;12.67;;;-0.30;95.50;;;;;;6239615;28;20041;-80
2023/03/01 01:02:57;;;;;;;18.57;11.93;;;-0.20;95.50;;;;;;6235500;28;20046;-81
2023/03/01 01:05:58;;;;;;;23.00;14.47;;;-0.20;95.60;;;;;;6237292;28;20045;-81
2023/03/01 01:09:00;;;;;;;21.63;12.73;;;-0.20;95.60;;;;;;6240927;28;20042;-81
2023/03/01 01:12:02;;;;;;;16.43;13.30;;;-0.20;95.70;;;;;;6237475;28;20050;-81
2023/03/01 01:15:06;;;;;;;24.57;11.33;;;-0.20;95.80;;;;;;6236821;28;20038;-80
2023/03/01 01:18:08;;;;;;;23.53;13.63;;;-0.30;95.70;;;;;;6238761;28;20050;-81
2023/03/01 01:21:12;;;;;;;19.27;12.03;;;-0.30;95.70;;;;;;6236606;28;20046;-80
2023/03/01 01:24:13;;;;;;;17.17;12.03;;;-0.30;95.80;;;;;;6239376;28;20038;-81
2023/03/01 01:27:15;;;;;;;20.43;12.50;;;-0.40;95.90;;;;;;6241038;28;20520;-81
2023/03/01 01:30:18;;;;;;;16.03;9.60;;;-0.40;95.90;;;;;;6238548;28;20045;-81
2023/03/01 01:33:20;;;;;;;17.90;10.70;;;-0.40;96.10;;;;;;6239456;28;20050;-80
2023/03/01 01:36:22;;;;;;;16.93;10.43;;;-0.40;96.20;;;;;;6242305;28;20057;-81
2023/03/01 01:39:24;;;;;;;17.87;11.97;;;-0.40;96.30;;;;;;6238401;28;20049;-81
2023/03/01 01:42:27;;;;;;;25.10;13.87;;;-0.30;96.30;;;;;;6238341;28;20048;-80
2023/03/01 01:45:34;;;;;;;19.53;11.20;;;-0.30;96.30;;;;;;6241211;28;20045;-81
2023/03/01 01:48:41;;;;;;;14.40;9.60;;;-0.30;96.40;;;;;;6237383;28;20053;-81
2023/03/01 01:51:47;;;;;;;20.13;12.27;;;-0.30;96.40;;;;;;6240234;28;20546;-81
2023/03/01 01:54:54;;;;;;;21.30;13.10;;;-0.30;96.50;;;;;;6238676;28;20173;-80
2023/03/01 01:58:00;;;;;;;19.67;11.83;;;-0.30;96.70;;;;;;6237475;28;20041;-80
2023/03/01 02:01:04;;;;;;;21.93;14.43;;;-0.30;96.50;;;;;;6237680;28;20053;-81
2023/03/01 02:04:07;;;;;;;21.00;13.17;;;-0.30;96.70;;;;;;6236959;28;20388;-81
2023/03/01 02:07:15;;;;;;;20.73;12.27;;;-0.30;96.70;;;;;;6237204;28;20045;-80
2023/03/01 02:10:16;;;;;;;;;;;-0.30;96.70;;;;;;6239995;28;20503;-81
2023/03/01 02:13:18;;;;;;;20.90;10.47;;;-0.30;96.80;;;;;;6237991;28;20280;-81
2023/03/01 02:16:21;;;;;;;25.47;13.50;;;-0.30;96.80;;;;;;6239009;28;20056;-81
2023/03/01 02:19:36;;;;;;;15.57;11.63;;;-0.30;96.80;;;;;;6236448;28;20048;-81
2023/03/01 02:22:39;;;;;;;28.27;14.93;;;-0.30;96.80;;;;;;6235892;28;20057;-81
2023/03/01 02:25:51;;;;;;;19.43;11.87;;;-0.30;96.90;;;;;;6237203;28;20076;-82
2023/03/01 02:28:54;;;;;;;24.83;14.20;;;-0.30;96.90;;;;;;6239287;28;20052;-81
2023/03/01 02:31:58;;;;;;;23.03;12.67;;;-0.40;96.80;;;;;;6234061;28;20038;-81
2023/03/01 02:35:00;;;;;;;19.13;12.47;;;-0.50;96.90;;;;;;6241027;28;20052;-81
2023/03/01 02:38:03;;;;;;;20.37;13.77;;;-0.50;97.00;;;;;;6239434;28;20423;-81
2023/03/01 02:41:07;;;;;;;19.57;13.03;;;-0.50;97.00;;;;;;6237254;28;20053;-81
2023/03/01 02:44:10;;;;;;;23.17;14.20;;;-0.60;97.00;;;;;;6237541;28;20053;-81
2023/03/01 02:47:12;;;;;;;23.57;14.47;;;-0.60;97.10;;;;;;6238204;28;20044;-81
2023/03/01 02:50:24;;;;;;;24.73;13.53;;;-0.70;97.10;;;;;;6235873;28;20063;-81
2023/03/01 02:53:33;;;;;;;24.73;15.93;;;-0.70;97.20;;;;;;6238689;28;20049;-81
2023/03/01 02:56:35;;;;;;;20.07;13.63;;;-0.70;97.20;;;;;;6240629;28;20056;-82
2023/03/01 02:59:40;;;;;;;25.83;15.07;;;-0.80;97.20;;;;;;6242593;28;20045;-80
2023/03/01 03:02:42;;;;;;;20.73;15.33;;;-0.90;97.30;;;;;;6241243;28;20053;-81
2023/03/01 03:05:44;;;;;;;25.93;14.30;;;-0.90;97.40;;;;;;6236596;28;20063;-81
2023/03/01 03:08:45;;;;;;;22.57;14.83;;;-1.00;97.50;;;;;;6236947;28;20048;-81
2023/03/01 03:11:48;;;;;;;22.97;13.10;;;-1.00;97.50;;;;;;6236326;28;20049;-81
2023/03/01 03:14:51;;;;;;;23.33;15.20;;;-1.00;97.60;;;;;;6236981;28;20488;-80
2023/03/01 03:17:54;;;;;;;23.63;15.67;;;-1.00;97.80;;;;;;6236494;28;20044;-82
2023/03/01 03:20:56;;;;;;;25.10;15.33;;;-1.00;97.90;;;;;;6240992;28;20052;-81
2023/03/01 03:23:58;;;;;;;26.17;14.63;;;-1.00;97.90;;;;;;6234721;28;20066;-81
2023/03/01 03:26:59;;;;;;;22.60;14.93;;;-1.00;98.00;;;;;;6236101;28;20049;-80
2023/03/01 03:30:02;;;;;;;21.77;14.13;;;-0.90;98.10;;;;;;6235128;28;20559;-81
2023/03/01 03:33:04;;;;;;;20.67;13.30;;;-0.90;98.10;;;;;;6238497;28;20050;-81
2023/03/01 03:36:06;;;;;;;19.73;13.87;;;-1.00;98.10;;;;;;6238534;28;20050;-81
2023/03/01 03:39:08;;;;;;;25.83;13.83;;;-1.00;98.20;;;;;;6238746;28;20411;-81
2023/03/01 03:42:10;;;;;;;29.40;14.40;;;-1.00;98.30;;;;;;6238256;28;20057;-80
2023/03/01 03:45:13;;;;;;;27.10;15.57;;;-1.10;98.30;;;;;;6237575;28;20050;-80
2023/03/01 03:48:16;;;;;;;28.50;16.27;;;-1.10;98.40;;;;;;6238895;28;20045;-80
2023/03/01 03:51:19;;;;;;;25.50;14.93;;;-1.10;98.40;;;;;;6235184;28;20038;-81
2023/03/01 03:54:20;;;;;;;30.67;16.30;;;-1.20;98.40;;;;;;6237025;28;20115;-81
2023/03/01 03:57:22;;;;;;;24.03;14.13;;;-1.20;98.50;;;;;;6242213;28;20053;-81
2023/03/01 04:00:25;;;;;;;28.57;15.73;;;-1.20;98.60;;;;;;6237552;28;20427;-81
2023/03/01 04:03:29;;;;;;;26.73;15.37;;;-1.20;98.70;;;;;;6233558;28;20046;-81
2023/03/01 04:06:31;;;;;;;26.93;15.43;;;-1.30;98.70;;;;;;6234096;28;20049;-81
2023/03/01 04:09:33;;;;;;;23.03;15.27;;;-1.30;98.80;;;;;;6237028;28;20045;-81
2023/03/01 04:12:35;;;;;;;22.87;14.67;;;-1.20;98.80;;;;;;6235994;28;20053;-81
2023/03/01 04:15:38;;;;;;;30.00;15.70;;;-1.30;98.90;;;;;;6235705;28;20125;-81
2023/03/01 04:18:40;;;;;;;27.93;16.90;;;-1.40;98.90;;;;;;6234416;28;20053;-81
2023/03/01 04:21:42;;;;;;;28.57;14.57;;;-1.40;99.00;;;;;;6236522;28;20068;-81
2023/03/01 04:24:44;;;;;;;27.00;15.40;;;-1.40;99.20;;;;;;6236256;28;20049;-82
2023/03/01 04:27:45;;;;;;;29.10;16.17;;;-1.40;99.20;;;;;;6235648;28;20041;-81
2023/03/01 04:30:48;;;;;;;26.17;14.57;;;-1.40;99.20;;;;;;6235393;28;20048;-80
2023/03/01 04:33:52;;;;;;;23.03;15.10;;;-1.40;99.30;;;;;;6233271;28;20053;-81
2023/03/01 04:36:54;;;;;;;26.20;14.23;;;-1.40;99.40;;;;;;6238546;28;20069;-81
2023/03/01 04:39:55;;;;;;;25.67;14.50;;;-1.40;99.40;;;;;;6239937;28;20052;-80
2023/03/01 04:42:57;;;;;;;23.77;14.80;;;-1.40;99.60;;;;;;6239070;28;20518;-81
2023/03/01 04:46:03;;;;;;;23.37;15.80;;;-1.40;99.70;;;;;;6243796;28;20060;-81
2023/03/01 04:49:05;;;;;;;30.53;16.30;;;-1.40;99.60;;;;;;6239593;28;20042;-80
2023/03/01 04:52:07;;;;;;;35.80;16.93;;;-1.40;99.70;;;;;;6236594;28;20042;-81
2023/03/01 04:55:10;;;;;;;27.53;16.00;;;-1.40;99.70;;;;;;6240300;28;20044;-81
2023/03/01 04:58:12;;;;;;;27.17;16.30;;;-1.40;99.70;;;;;;6239141;28;20046;-81
2023/03/01 05:01:17;;;;;;;33.37;17.40;;;-1.40;99.80;;;;;;6238619;28;20042;-81
2023/03/01 05:04:19;;;;;;;30.93;18.20;;;-1.40;99.90;;;;;;6234121;28;20180;-81
2023/03/01 05:07:21;;;;;;;32.30;18.43;;;-1.40;99.90;;;;;;6241376;28;20052;-81
2023/03/01 05:10:23;;;;;;;27.00;17.53;;;-1.50;99.90;;;;;;6239270;28;20531;-81
2023/03/01 05:13:26;;;;;;;26.47;15.97;;;-1.50;99.90;;;;;;6239586;28;20136;-81
2023/03/01 05:16:30;;;;;;;29.63;17.50;;;-1.50;99.90;;;;;;6239564;28;20772;-81
2023/03/01 05:19:32;;;;;;;27.13;16.67;;;-1.50;99.90;;;;;;6239963;28;20504;-81
2023/03/01 05:22:34;;;;;;;35.73;17.93;;;-1.50;99.90;;;;;;6245113;28;20515;-80
2023/03/01 05:25:39;;;;;;;30.33;18.07;;;-1.60;99.90;;;;;;6240339;28;20085;-81
2023/03/01 05:28:41;;;;;;;27.90;15.80;;;-1.60;99.90;;;;;;6239888;28;20042;-81
2023/03/01 05:31:44;;;;;;;32.63;19.20;;;-1.60;99.90;;;;;;6234929;28;20037;-81
2023/03/01 05:34:46;;;;;;;30.50;17.63;;;-1.60;99.90;;;;;;6238002;28;20045;-81
2023/03/01 05:37:50;;;;;;;32.40;17.20;;;-1.60;99.90;;;;;;6239087;28;20049;-81
2023/03/01 05:40:51;;;;;;;23.57;14.60;;;-1.70;99.90;;;;;;6239707;28;20052;-81
2023/03/01 05:43:53;;;;;;;25.10;16.53;;;-1.60;99.90;;;;;;6237082;28;20113;-81
2023/03/01 05:46:57;;;;;;;27.47;16.23;;;-1.60;99.90;;;;;;6240953;28;20053;-81
2023/03/01 05:49:58;;;;;;;31.10;17.57;;;-1.60;99.90;;;;;;6244588;28;20052;-81
2023/03/01 05:53:01;;;;;;;29.03;17.10;;;-1.60;99.90;;;;;;6239738;28;21505;-81
2023/03/01 05:56:04;;;;;;;30.97;16.23;;;-1.60;99.90;;;;;;6258676;23;20061;-80
2023/03/01 05:59:06;;;;;;;23.80;16.93;;;-1.60;99.90;;;;;;6235779;28;20057;-80
2023/03/01 06:02:09;;;;;;;38.53;18.73;;;-1.60;99.90;;;;;;6237182;28;20052;-80
2023/03/01 06:05:13;;;;;;;28.17;17.50;;;-1.60;99.90;;;;;;6238427;28;20056;-80
2023/03/01 06:08:14;;;;;;;30.37;17.17;;;-1.60;99.90;;;;;;6239197;28;20045;-80
2023/03/01 06:11:16;;;;;;;41.40;21.97;;;-1.60;99.90;;;;;;6240055;28;20046;-80
2023/03/01 06:14:18;;;;;;;29.10;16.70;;;-1.60;99.90;;;;;;6242639;28;21063;-81
2023/03/01 06:17:21;;;;;;;31.57;19.43;;;-1.60;99.90;;;;;;6236282;28;20057;-81
2023/03/01 06:20:25;;;;;;;26.97;18.90;;;-1.60;99.90;;;;;;6237685;28;20048;-80
2023/03/01 06:23:27;;;;;;;29.97;18.03;;;-1.60;99.90;;;;;;6238559;28;20049;-80
2023/03/01 06:26:28;;;;;;;30.90;17.20;;;-1.60;99.90;;;;;;6244605;28;20053;-81
2023/03/01 06:29:30;;;;;;;32.00;17.47;;;-1.50;99.90;;;;;;6240768;28;20048;-80
2023/03/01 06:32:33;;;;;;;30.57;19.03;;;-1.50;99.90;;;;;;6242486;28;20045;-81
2023/03/01 06:35:35;;;;;;;29.93;17.77;;;-1.50;99.90;;;;;;6238556;28;20053;-81
2023/03/01 06:38:37;;;;;;;31.23;18.23;;;-1.40;99.90;;;;;;6238454;28;20045;-81
2023/03/01 06:41:39;;;;;;;37.73;18.57;;;-1.40;99.90;;;;;;6239248;28;20057;-80
2023/03/01 06:44:40;;;;;;;28.73;17.17;;;-1.40;99.90;;;;;;6234599;28;20073;-80
2023/03/01 06:47:43;;;;;;;28.33;17.17;;;-1.30;99.90;;;;;;6213050;28;20057;-80
2023/03/01 06:50:45;;;;;;;27.13;15.53;;;-1.20;99.90;;;;;;6242342;28;20072;-80
2023/03/01 06:53:47;;;;;;;28.77;18.33;;;-1.10;99.90;;;;;;6242521;28;20057;-80
2023/03/01 06:56:49;;;;;;;34.93;18.50;;;-1.00;99.90;;;;;;6238855;28;20049;-81
2023/03/01 06:59:51;;;;;;;27.37;17.13;;;-0.90;99.90;;;;;;6254192;28;20040;-82
2023/03/01 07:02:54;;;;;;;27.70;18.90;;;-0.80;99.90;;;;;;6257072;28;20040;-81
2023/03/01 07:05:56;;;;;;;27.30;15.90;;;-0.60;99.90;;;;;;6254042;28;20044;-80
2023/03/01 07:08:58;;;;;;;34.97;18.03;;;-0.50;99.90;;;;;;6260135;28;20057;-80
2023/03/01 07:11:59;;;;;;;38.53;17.70;;;-0.40;99.90;;;;;;6258816;28;20057;-80
2023/03/01 07:15:01;;;;;;;30.23;17.53;;;-0.20;99.90;;;;;;6251305;28;20404;-82
2023/03/01 07:18:04;;;;;;;32.43;17.87;;;0.00;99.90;;;;;;6249012;28;20041;-80
2023/03/01 07:21:07;;;;;;;33.50;19.13;;;0.10;99.90;;;;;;6253419;28;20068;-81
2023/03/01 07:24:09;;;;;;;37.20;17.77;;;0.30;99.90;;;;;;6260287;28;20045;-81
2023/03/01 07:27:11;;;;;;;31.33;17.00;;;0.50;99.90;;;;;;6256952;28;20386;-81
2023/03/01 07:30:13;;;;;;;28.17;15.80;;;0.70;99.90;;;;;;6253791;28;20041;-83
2023/03/01 07:33:16;;;;;;;34.37;20.07;;;0.80;99.90;;;;;;6252212;28;20056;-81
2023/03/01 07:36:18;;;;;;;30.97;18.80;;;1.10;99.90;;;;;;6256872;28;20069;-81
2023/03/01 07:39:19;;;;;;;24.17;16.10;;;1.30;99.90;;;;;;6252679;28;20046;-83
2023/03/01 07:42:21;;;;;;;29.85;18.42;;;1.40;99.90;;;;;;6251045;28;20057;-81
2023/03/01 07:45:23;;;;;;;25.05;17.60;;;1.60;99.90;;;;;;6255998;28;20055;-81
2023/03/01 07:48:26;;;;;;;31.23;17.52;;;1.80;99.90;;;;;;6255324;28;20518;-82
2023/03/01 07:51:27;;;;;;;26.08;16.88;;;1.90;99.90;;;;;;6257248;28;20410;-81
2023/03/01 07:54:29;;;;;;;26.38;17.58;;;2.10;99.90;;;;;;6253961;28;20074;-82
2023/03/01 07:57:31;;;;;;;24.60;16.50;;;2.20;99.90;;;;;;6242995;28;21902;-82
2023/03/01 08:00:33;;;;;;;25.40;16.23;;;2.30;99.90;;;;;;6225456;28;20051;-82
2023/03/01 08:03:37;;;;;;;25.52;16.80;;;2.50;99.90;;;;;;6202452;28;20042;-82
2023/03/01 08:06:39;;;;;;;31.10;20.45;;;2.60;99.80;;;;;;6198161;28;20507;-82
2023/03/01 08:09:41;;;;;;;26.30;17.00;;;2.70;99.50;;;;;;6224980;28;20724;-81
2023/03/01 08:12:42;;;;;;;46.45;20.27;;;2.90;99.50;;;;;;6233296;28;20100;-82
2023/03/01 08:15:51;;;;;;;27.98;19.02;;;3.10;99.00;;;;;;6233615;28;20053;-83
2023/03/01 08:18:56;;;;;;;27.95;16.08;;;3.00;97.90;;;;;;6232909;28;20050;-80
2023/03/01 08:21:58;;;;;;;30.40;16.63;;;3.00;98.10;;;;;;6229704;28;20068;-80
2023/03/01 08:25:01;;;;;;;26.45;17.63;;;3.10;98.00;;;;;;6193170;28;20062;-80
2023/03/01 08:28:04;;;;;;;29.75;18.33;;;3.40;97.70;;;;;;6221390;28;20041;-79
2023/03/01 08:31:15;;;;;;;27.90;14.07;;;3.60;97.70;;;;;;6213894;28;21375;-80
2023/03/01 08:34:19;;;;;;;27.60;17.67;;;3.70;97.40;;;;;;6201696;28;20045;-80
2023/03/01 08:37:20;;;;;;;27.15;17.35;;;3.90;97.50;;;;;;6245049;28;20065;-79
2023/03/01 08:40:22;;;;;;;29.42;18.00;;;4.20;97.50;;;;;;6239364;28;20041;-78
2023/03/01 08:43:24;;;;;;;29.30;18.52;;;4.40;97.20;;;;;;6235437;28;20095;-80
2023/03/01 08:46:26;;;;;;;28.80;17.17;;;4.60;96.60;;;;;;6225507;28;20076;-79
2023/03/01 08:49:29;;;;;;;26.02;17.27;;;4.70;96.40;;;;;;6192605;28;20046;-80
2023/03/01 08:52:33;;;;;;;27.35;20.90;;;4.90;96.30;;;;;;6228934;28;20056;-80
2023/03/01 08:55:35;;;;;;;25.23;16.70;;;5.10;96.40;;;;;;6226771;28;20058;-80
2023/03/01 08:58:37;;;;;;;38.33;24.83;;;5.30;94.90;;;;;;6215913;28;20062;-79
2023/03/01 09:01:39;;;;;;;28.20;20.63;;;5.20;94.60;;;;;;6191728;28;20050;-79
2023/03/01 09:04:44;;;;;;;30.40;18.55;;;5.30;94.70;;;;;;6240632;28;20049;-82
2023/03/01 09:07:45;;;;;;;26.75;18.38;;;5.50;94.80;;;;;;6230643;28;20053;-80
2023/03/01 09:10:47;;;;;;;24.17;17.70;;;5.90;94.90;;;;;;6204327;28;20394;-81
2023/03/01 09:13:52;;;;;;;32.75;18.63;;;6.20;94.70;;;;;;6192433;28;20046;-80
2023/03/01 09:16:54;;;;;;;30.58;21.83;;;6.50;93.90;;;;;;6236372;28;20057;-80
2023/03/01 09:19:57;;;;;;;29.02;19.27;;;6.40;93.00;;;;;;6230379;28;20048;-79
2023/03/01 09:23:00;;;;;;;25.60;18.65;;;6.40;92.50;;;;;;6211781;28;20070;-79
2023/03/01 09:26:02;;;;;;;27.00;18.98;;;6.40;91.70;;;;;;6195950;28;20037;-79
2023/03/01 09:29:03;;;;;;;27.35;16.65;;;6.30;91.80;;;;;;6229185;28;20049;-80
2023/03/01 09:32:06;;;;;;;27.88;20.88;;;6.40;91.70;;;;;;6231360;28;20258;-80
2023/03/01 09:35:11;;;;;;;26.30;17.70;;;6.60;91.80;;;;;;6226474;28;20060;-81
2023/03/01 09:38:16;;;;;;;24.85;17.00;;;6.90;91.50;;;;;;6231391;28;20049;-79
2023/03/01 09:41:33;;;;;;;26.92;16.70;;;7.00;90.40;;;;;;6232436;28;20060;-80
2023/03/01 09:44:41;;;;;;;27.73;17.17;;;6.80;89.40;;;;;;6236250;28;20597;-80
2023/03/01 09:47:42;;;;;;;;;;;6.80;89.70;;;;;;6232414;28;20061;-80
2023/03/01 09:50:46;;;;;;;28.00;20.48;;;6.90;89.60;;;;;;6216766;28;19929;-80
2023/03/01 09:53:48;;;;;;;29.65;23.00;;;7.20;89.60;;;;;;6186919;28;20054;-80
2023/03/01 09:57:02;;;;;;;25.58;20.67;;;7.40;88.80;;;;;;6232770;28;20050;-81
2023/03/01 10:00:28;;;;;;;30.75;20.90;;;7.40;88.20;;;;;;6226953;28;20045;-80
2023/03/01 10:03:40;;;;;;;22.40;17.77;;;7.70;88.00;;;;;;6225559;28;20056;-81
2023/03/01 10:06:50;;;;;;;24.23;18.65;;;7.80;86.90;;;;;;6210541;28;20053;-80
2023/03/01 10:09:52;;;;;;;27.45;17.33;;;7.80;87.00;;;;;;6188080;28;20057;-80
2023/03/01 10:12:56;;;;;;;26.33;19.08;;;8.10;86.30;;;;;;6233038;28;20049;-80
2023/03/01 10:16:02;;;;;;;34.08;18.08;;;8.10;85.10;;;;;;6195540;28;20522;-80
2023/03/01 10:19:07;;;;;;;29.77;18.90;;;8.10;83.50;;;;;;6211147;28;20045;-80
2023/03/01 10:22:17;;;;;;;22.95;18.55;;;7.90;84.00;;;;;;6221903;28;20046;-80
2023/03/01 10:25:26;;;;;;;24.75;18.52;;;8.10;84.40;;;;;;6182932;28;20116;-80
2023/03/01 10:28:37;;;;;;;28.23;19.40;;;8.40;84.00;;;;;;6231074;28;20060;-80
2023/03/01 10:31:43;;;;;;;21.48;16.67;;;8.30;82.20;;;;;;6227916;28;20365;-80
2023/03/01 10:34:45;;;;;;;19.13;14.40;;;8.20;81.60;;;;;;6228681;28;20046;-82
2023/03/01 10:38:03;;;;;;;32.00;18.80;;;8.30;81.70;;;;;;6220880;28;20531;-80
2023/03/01 10:41:07;;;;;;;29.50;19.45;;;8.20;80.60;;;;;;6187759;28;20046;-81
2023/03/01 10:44:32;;;;;;;24.45;16.55;;;8.20;81.40;;;;;;6221484;28;20595;-81
2023/03/01 10:47:35;;;;;;;26.73;17.75;;;8.40;80.90;;;;;;6229217;28;20061;-81
2023/03/01 10:50:39;;;;;;;33.00;22.70;;;8.60;80.10;;;;;;6228463;28;20049;-80
2023/03/01 10:53:43;;;;;;;27.75;16.70;;;8.70;80.00;;;;;;6228400;28;20056;-80
2023/03/01 10:56:50;;;;;;;26.45;17.83;;;8.70;79.90;;;;;;6228659;28;20513;-80
2023/03/01 11:00:11;;;;;;;22.85;18.50;;;8.80;80.00;;;;;;6199408;28;20042;-80
2023/03/01 11:03:17;;;;;;;25.60;19.42;;;9.10;79.00;;;;;;6206174;28;20052;-81
2023/03/01 11:06:23;;;;;;;26.45;18.35;;;9.00;77.40;;;;;;6228850;28;20045;-80
2023/03/01 11:09:27;;;;;;;22.75;17.17;;;8.90;77.90;;;;;;6232873;28;20049;-80
2023/03/01 11:12:29;;;;;;;26.38;17.42;;;8.90;77.90;;;;;;6187648;28;20100;-80
2023/03/01 11:15:31;;;;;;;43.17;19.95;;;9.00;77.40;;;;;;6213326;28;20046;-81
2023/03/01 11:18:34;;;;;;;25.17;18.08;;;9.00;77.20;;;;;;6231485;28;20046;-79
2023/03/01 11:21:39;;;;;;;32.25;20.45;;;9.10;76.70;;;;;;6232787;28;21055;-80
2023/03/01 11:24:44;;;;;;;27.40;20.83;;;9.10;76.70;;;;;;6233239;28;20050;-81
2023/03/01 11:27:47;;;;;;;26.98;19.20;;;9.20;77.30;;;;;;6227035;28;20052;-80
2023/03/01 11:30:54;;;;;;;26.75;18.33;;;9.20;75.60;;;;;;6231205;28;20050;-80
2023/03/01 11:34:02;;;;;;;25.48;16.98;;;9.20;76.40;;;;;;6227690;28;20079;-82
2023/03/01 11:37:13;;;;;;;27.92;18.23;;;9.70;76.50;;;;;;6229553;28;20045;-82
2023/03/01 11:40:18;;;;;;;20.67;17.63;;;10.20;75.50;;;;;;6230823;28;20057;-81
2023/03/01 11:43:27;;;;;;;24.95;20.02;;;10.60;75.50;;;;;;6207082;28;21095;-81
2023/03/01 11:46:55;;;;;;;22.70;18.70;;;10.50;73.30;;;;;;6209174;28;20060;-81
2023/03/01 11:50:16;;;;;;;26.13;17.52;;;10.20;73.70;;;;;;6232969;28;20057;-80
2023/03/01 11:53:37;;;;;;;31.60;19.92;;;10.30;73.60;;;;;;6239442;28;20054;-81
2023/03/01 11:56:45;;;;;;;26.80;21.55;;;10.80;73.60;;;;;;6232571;28;20053;-81
2023/03/01 12:00:00;;;;;;;25.33;18.88;;;11.10;73.10;;;;;;6230140;28;20052;-81
2023/03/01 12:03:26;;;;;;;30.42;22.55;;;11.50;72.80;;;;;;6212545;28;20053;-80
2023/03/01 12:06:45;;;;;;;31.17;18.80;;;11.70;70.90;;;;;;6204828;28;20041;-80
2023/03/01 12:10:07;;;;;;;27.67;19.98;;;11.40;70.40;;;;;;6234631;28;20060;-79
2023/03/01 12:13:43;;;;;;;33.50;21.05;;;11.40;70.40;;;;;;6186317;28;20054;-79
2023/03/01 12:17:28;;;;;;;23.95;16.63;;;11.50;71.10;;;;;;6192329;28;20048;-78
2023/03/01 12:20:36;;;;;;;25.60;18.23;;;11.60;69.30;;;;;;6230906;28;20045;-79
2023/03/01 12:24:08;;;;;;;27.40;17.50;;;11.30;68.90;;;;;;6201670;28;20038;-78
2023/03/01 12:27:24;;;;;;;26.73;20.73;;;11.10;68.90;;;;;;6213823;28;20053;-78
2023/03/01 12:30:36;;;;;;;23.10;18.50;;;10.80;68.60;;;;;;6232875;28;20068;-79
2023/03/01 12:33:51;;;;;;;28.95;18.30;;;10.60;69.00;;;;;;6227802;28;20050;-78
2023/03/01 12:37:08;;;;;;;28.00;19.42;;;10.80;69.50;;;;;;6190225;28;20054;-78
2023/03/01 12:41:03;;;;;;;28.52;18.50;;;11.20;68.60;;;;;;6221553;28;20050;-79
2023/03/01 12:44:15;;;;;;;23.85;16.08;;;11.30;67.80;;;;;;6171169;28;20076;-81
2023/03/01 12:47:41;;;;;;;26.95;20.80;;;11.30;68.10;;;;;;6204995;28;20066;-78
2023/03/01 12:50:47;;;;;;;22.90;18.83;;;11.50;68.70;;;;;;6203394;28;20064;-78
2023/03/01 12:53:51;;;;;;;26.02;17.98;;;12.10;67.80;;;;;;6230831;28;20048;-78
2023/03/01 12:56:55;;;;;;;21.90;16.52;;;11.90;66.30;;;;;;6228097;28;20054;-78
2023/03/01 13:00:10;;;;;;;26.83;18.13;;;11.80;67.00;;;;;;6231189;28;20058;-77
2023/03/01 13:03:24;;;;;;;24.63;19.20;;;11.90;67.30;;;;;;6203101;28;20043;-78
2023/03/01 13:06:37;;;;;;;26.00;19.13;;;11.90;65.80;;;;;;6197355;28;20038;-78
2023/03/01 13:09:44;;;;;;;24.80;16.73;;;11.60;66.00;;;;;;6225879;28;20060;-77
2023/03/01 13:12:52;;;;;;;25.23;18.42;;;11.40;65.80;;;;;;6181023;28;20065;-76
2023/03/01 13:15:55;;;;;;;23.67;15.32;;;11.10;66.50;;;;;;6218524;28;20058;-77
2023/03/01 13:19:09;;;;;;;24.60;17.90;;;11.40;66.20;;;;;;6210871;28;20066;-77
2023/03/01 13:22:27;;;;;;;24.58;19.83;;;11.40;65.80;;;;;;6195548;28;20037;-78
2023/03/01 13:25:29;;;;;;;;;;;11.60;66.80;;;;;;6234895;28;20046;-79
2023/03/01 13:28:56;;;;;;;26.33;18.98;;;11.60;66.00;;;;;;6194137;28;19929;-78
2023/03/01 13:31:59;;;;;;;24.00;16.60;;;11.40;65.40;;;;;;6224434;28;20057;-80
2023/03/01 13:35:03;;;;;;;23.42;18.20;;;11.30;65.60;;;;;;6211938;28;20046;-79
2023/03/01 13:38:41;;;;;;;24.10;20.08;;;11.50;66.50;;;;;;6212677;28;20104;-80
2023/03/01 13:41:51;;;;;;;24.88;18.60;;;11.60;65.40;;;;;;6237898;28;20049;-80
2023/03/01 13:44:55;;;;;;;23.00;16.13;;;11.70;65.40;;;;;;6235799;28;20053;-79
2023/03/01 13:47:59;;;;;;;25.17;19.60;;;11.50;65.50;;;;;;6239008;28;20064;-79
2023/03/01 13:51:04;;;;;;;29.20;18.55;;;11.60;65.60;;;;;;6235149;28;20042;-79
2023/03/01 13:54:11;;;;;;;18.80;15.18;;;11.70;65.10;;;;;;6229909;28;20049;-78
2023/03/01 13:57:22;;;;;;;21.77;16.77;;;11.50;64.80;;;;;;6195923;28;20062;-79
2023/03/01 14:00:36;;;;;;;22.85;18.25;;;11.50;65.40;;;;;;6233856;28;20041;-79
2023/03/01 14:03:42;;;;;;;21.13;15.95;;;11.70;65.40;;;;;;6229617;28;20049;-79
2023/03/01 14:06:44;;;;;;;23.90;17.17;;;12.10;64.70;;;;;;6241816;28;20408;-79
2023/03/01 14:09:48;;;;;;;26.08;19.77;;;12.10;64.10;;;;;;6240321;28;20053;-80
2023/03/01 14:12:55;;;;;;;19.90;17.65;;;12.00;64.30;;;;;;6241576;28;20051;-79
2023/03/01 14:16:13;;;;;;;27.02;18.20;;;11.80;64.40;;;;;;6236807;28;20182;-79
2023/03/01 14:19:18;;;;;;;26.40;18.52;;;11.80;64.10;;;;;;6233174;28;20049;-80
2023/03/01 14:22:23;;;;;;;19.42;15.32;;;11.60;64.60;;;;;;6232367;28;20042;-79
2023/03/01 14:25:27;;;;;;;25.45;20.63;;;11.70;65.10;;;;;;6245438;28;20060;-79
2023/03/01 14:28:33;;;;;;;21.83;18.45;;;11.80;64.80;;;;;;6241089;28;20053;-79
2023/03/01 14:31:42;;;;;;;25.92;17.20;;;12.10;64.00;;;;;;6239810;28;20038;-81
2023/03/01 14:34:45;;;;;;;24.40;17.98;;;11.90;64.10;;;;;;6237236;28;20080;-79
2023/03/01 14:37:49;;;;;;;22.63;16.90;;;12.00;64.00;;;;;;6236518;28;20080;-79
2023/03/01 14:40:55;;;;;;;21.13;17.48;;;12.50;64.70;;;;;;6241052;28;20045;-79
2023/03/01 14:44:00;;;;;;;22.08;16.80;;;13.10;63.80;;;;;;6203503;28;20046;-79
2023/03/01 14:47:03;;;;;;;19.73;16.25;;;13.10;62.80;;;;;;6217651;28;20086;-79
2023/03/01 14:50:09;;;;;;;21.88;16.65;;;12.80;62.60;;;;;;6232205;28;20042;-80
2023/03/01 14:53:18;;;;;;;20.52;17.17;;;12.80;62.80;;;;;;6215511;28;20056;-79
2023/03/01 14:56:20;;;;;;;19.73;16.13;;;12.60;63.00;;;;;;6206103;28;20050;-78
2023/03/01 14:59:24;;;;;;;21.48;16.10;;;12.40;61.90;;;;;;6211787;28;20165;-79
2023/03/01 15:02:29;;;;;;;27.75;18.35;;;12.00;62.40;;;;;;6214680;28;20058;-79
2023/03/01 15:05:33;;;;;;;23.35;19.23;;;11.80;62.60;;;;;;6206310;28;20065;-79
2023/03/01 15:08:36;;;;;;;24.00;18.98;;;11.80;63.50;;;;;;6233342;28;20053;-79
2023/03/01 15:11:41;;;;;;;25.60;17.33;;;11.90;63.30;;;;;;6208779;28;20043;-79
2023/03/01 15:14:44;;;;;;;25.60;19.40;;;11.80;63.10;;;;;;6209974;28;20551;-79
2023/03/01 15:17:54;;;;;;;24.42;18.80;;;11.60;63.50;;;;;;6234160;28;20073;-78
2023/03/01 15:21:05;;;;;;;19.98;16.13;;;11.60;63.70;;;;;;6232600;28;20056;-79
2023/03/01 15:24:20;;;;;;;25.02;20.17;;;11.70;63.90;;;;;;6199245;28;20110;-78
2023/03/01 15:27:23;;;;;;;22.77;16.58;;;11.70;63.10;;;;;;6210799;28;20115;-78
2023/03/01 15:30:28;;;;;;;28.33;17.95;;;11.60;63.30;;;;;;6231067;28;20068;-79
2023/03/01 15:33:34;;;;;;;19.10;16.30;;;11.40;63.20;;;;;;6237594;28;20081;-79
2023/03/01 15:36:42;;;;;;;29.77;17.92;;;10.90;63.20;;;;;;6234817;28;20515;-79
2023/03/01 15:39:53;;;;;;;24.02;16.77;;;10.40;64.00;;;;;;6208833;28;20059;-79
2023/03/01 15:42:55;;;;;;;23.48;16.13;;;10.00;64.70;;;;;;6210008;28;20044;-79
2023/03/01 15:45:58;;;;;;;21.17;15.30;;;9.70;65.30;;;;;;6237933;28;20061;-80